Time;durP1;ratioP1;P1;durP2;ratioP2;P2;SDS_P1;SDS_P2;PMS_P1;PMS_P2;Temp;Humidity;BMP_temperature;BMP_pressure;BME280_temperature;BME280_humidity;BME280_pressure;Samples;Min_cycle;Max_cycle;Signal;HPM_P1;HPM_P2
2021/06/25 00:00:17;;;;;;;;;;;;;;;;;;2082084;28;46941;-75
2021/06/25 00:01:19;;;;;;;;;;;;;;;;;;2098280;28;45440;-75
2021/06/25 00:02:20;;;;;;;;;;;;;;;;;;2097823;28;45875;-75
2021/06/25 00:03:22;;;;;;;;;;;;;;;;;;2098316;28;45453;-74
2021/06/25 00:04:23;;;;;;;;;;;;;;;;;;2098127;28;45340;-76
2021/06/25 00:05:24;;;;;;;;;;;;;;;;;;2081581;28;45479;-78
2021/06/25 00:06:26;;;;;;;;;;;;;;;;;;2089550;28;45353;-78
2021/06/25 00:07:27;;;;;;;;;;;;;;;;;;2098144;28;46816;-77
2021/06/25 00:08:29;;;;;;;;;;;;;;;;;;2098462;28;45330;-76
2021/06/25 00:09:30;;;;;;;;;;;;;;;;;;2098375;28;45863;-77
2021/06/25 00:10:32;;;;;;;;;;;;;;;;;;2089621;28;46217;-76
2021/06/25 00:11:34;;;;;;;;;;;;;;;;;;2082250;28;44808;-76
2021/06/25 00:12:35;;;;;;;;;;;;;;;;;;2097723;28;45766;-75
2021/06/25 00:13:37;;;;;;;;;;;;;;;;;;2097774;28;46078;-76
2021/06/25 00:14:38;;;;;;;;;;;;;;;;;;2098060;28;47243;-77
2021/06/25 00:15:40;;;;;;;;;;;;;;;;;;2097921;28;47062;-76
2021/06/25 00:16:41;;;;;;;;;;;;;;;;;;2081563;28;45743;-75
2021/06/25 00:17:43;;;;;;;;;;;;;;;;;;2081635;28;47313;-75
2021/06/25 00:18:44;;;;;;;;;;;;;;;;;;2081323;28;45819;-75
2021/06/25 00:19:45;;;;;;;;;;;;;;;;;;2081546;28;47207;-75
2021/06/25 00:20:47;;;;;;;;;;;;;;;;;;2081787;28;45822;-75
2021/06/25 00:21:50;;;;;;;;;;;;;;;;;;2082280;28;45973;-75
2021/06/25 00:22:52;;;;;;;;;;;;;;;;;;2082302;28;44267;-75
2021/06/25 00:23:53;;;;;;;;;;;;;;;;;;2082121;28;47012;-75
2021/06/25 00:24:55;;;;;;;;;;;;;;;;;;2098082;28;46027;-75
2021/06/25 00:25:57;;;;;;;;;;;;;;;;;;2098000;28;46127;-75
2021/06/25 00:26:58;;;;;;;;;;;;;;;;;;2089332;28;47235;-75
2021/06/25 00:28:00;;;;;;;;;;;;;;;;;;2081408;28;45541;-81
2021/06/25 00:29:01;;;;;;;;;;;;;;;;;;2089728;28;45903;-75
2021/06/25 00:30:03;;;;;;;;;;;;;;;;;;2097670;28;44584;-75
2021/06/25 00:31:05;;;;;;;;;;;;;;;;;;2082130;28;47328;-76
2021/06/25 00:32:06;;;;;;;;;;;;;;;;;;2082089;28;46351;-75
2021/06/25 00:33:08;;;;;;;;;;;;;;;;;;2081411;28;45313;-76
2021/06/25 00:34:10;;;;;;;;;;;;;;;;;;2081575;28;44777;-75
2021/06/25 00:35:12;;;;;;;;;;;;;;;;;;2082312;28;42479;-76
2021/06/25 00:36:13;;;;;;;;;;;;;;;;;;2082032;28;43810;-75
2021/06/25 00:37:14;;;;;;;;;;;;;;;;;;2081947;28;45253;-75
2021/06/25 00:38:16;;;;;;;;;;;;;;;;;;2098061;28;45517;-76
2021/06/25 00:39:17;;;;;;;;;;;;;;;;;;2097881;28;45287;-75
2021/06/25 00:40:19;;;;;;;;;;;;;;;;;;2081760;28;46519;-77
2021/06/25 00:41:20;;;;;;;;;;;;;;;;;;2081892;28;45273;-77
2021/06/25 00:42:22;;;;;;;;;;;;;;;;;;2082006;28;44833;-74
2021/06/25 00:43:23;;;;;;;;;;;;;;;;;;2081935;28;44536;-75
2021/06/25 00:44:25;;;;;;;;;;;;;;;;;;2097968;28;44036;-78
2021/06/25 00:45:27;;;;;;;;;;;;;;;;;;2089422;28;45550;-75
2021/06/25 00:46:29;;;;;;;;;;;;;;;;;;2073557;28;45351;-78
2021/06/25 00:47:31;;;;;;;;;;;;;;;;;;2081810;28;47003;-75
2021/06/25 00:48:32;;;;;;;;;;;;;;;;;;2081901;28;45963;-74
2021/06/25 00:49:34;;;;;;;;;;;;;;;;;;2081562;28;42337;-76
2021/06/25 00:50:36;;;;;;;;;;;;;;;;;;2089299;28;44674;-76
2021/06/25 00:51:39;;;;;;;;;;;;;;;;;;2097914;28;44584;-75
2021/06/25 00:52:41;;;;;;;;;;;;;;;;;;2098011;28;46816;-76
2021/06/25 00:53:43;;;;;;;;;;;;;;;;;;2098191;28;45122;-75
2021/06/25 00:54:44;;;;;;;;;;;;;;;;;;2081423;28;45524;-75
2021/06/25 00:55:46;;;;;;;;;;;;;;;;;;2081307;28;46892;-76
2021/06/25 00:56:47;;;;;;;;;;;;;;;;;;2081912;28;45378;-78
2021/06/25 00:57:49;;;;;;;;;;;;;;;;;;2081982;28;45644;-76
2021/06/25 00:58:51;;;;;;;;;;;;;;;;;;2081580;28;45592;-77
2021/06/25 00:59:52;;;;;;;;;;;;;;;;;;2089899;28;45608;-75
2021/06/25 01:00:54;;;;;;;;;;;;;;;;;;2097173;28;45765;-75
2021/06/25 01:01:55;;;;;;;;;;;;;;;;;;2097162;28;42948;-75
2021/06/25 01:02:57;;;;;;;;;;;;;;;;;;2097545;28;46791;-75
2021/06/25 01:03:59;;;;;;;;;;;;;;;;;;2089436;28;45611;-77
2021/06/25 01:05:01;;;;;;;;;;;;;;;;;;2080990;28;45684;-75
2021/06/25 01:06:02;;;;;;;;;;;;;;;;;;2081344;28;42680;-73
2021/06/25 01:07:05;;;;;;;;;;;;;;;;;;2081239;28;45923;-73
2021/06/25 01:08:07;;;;;;;;;;;;;;;;;;2089790;28;44487;-72
2021/06/25 01:09:09;;;;;;;;;;;;;;;;;;2089084;28;45480;-73
2021/06/25 01:10:10;;;;;;;;;;;;;;;;;;2089361;28;45374;-73
2021/06/25 01:11:12;;;;;;;;;;;;;;;;;;2097379;28;45759;-73
2021/06/25 01:12:14;;;;;;;;;;;;;;;;;;2081819;28;45382;-73
2021/06/25 01:13:15;;;;;;;;;;;;;;;;;;2097339;28;45560;-75
2021/06/25 01:14:19;;;;;;;;;;;;;;;;;;2097932;28;45922;-72
2021/06/25 01:15:21;;;;;;;;;;;;;;;;;;2081649;28;45872;-72
2021/06/25 01:16:22;;;;;;;;;;;;;;;;;;2081200;28;45911;-73
2021/06/25 01:17:30;;;;;;;;;;;;;;;;;;2073067;28;46122;-73
2021/06/25 01:18:31;;;;;;;;;;;;;;;;;;2081397;28;44491;-72
2021/06/25 01:19:33;;;;;;;;;;;;;;;;;;2097683;28;45733;-72
2021/06/25 01:20:35;;;;;;;;;;;;;;;;;;2088693;28;45780;-73
2021/06/25 01:21:36;;;;;;;;;;;;;;;;;;2089382;28;45801;-72
2021/06/25 01:22:40;;;;;;;;;;;;;;;;;;2097551;28;47160;-73
2021/06/25 01:23:42;;;;;;;;;;;;;;;;;;2097671;28;45901;-73
2021/06/25 01:24:43;;;;;;;;;;;;;;;;;;2097598;28;46964;-73
2021/06/25 01:25:45;;;;;;;;;;;;;;;;;;2097461;28;46446;-73
2021/06/25 01:26:46;;;;;;;;;;;;;;;;;;2089347;28;45816;-73
2021/06/25 01:27:55;;;;;;;;;;;;;;;;;;2080759;28;44784;-73
2021/06/25 01:28:57;;;;;;;;;;;;;;;;;;2081921;28;44446;-73
2021/06/25 01:29:59;;;;;;;;;;;;;;;;;;2081659;28;45820;-73
2021/06/25 01:31:01;;;;;;;;;;;;;;;;;;2081252;28;45753;-73
2021/06/25 01:32:02;;;;;;;;;;;;;;;;;;2072891;28;46420;-73
2021/06/25 01:33:05;;;;;;;;;;;;;;;;;;2081198;28;47159;-73
2021/06/25 01:34:06;;;;;;;;;;;;;;;;;;2081643;28;46904;-73
2021/06/25 01:35:09;;;;;;;;;;;;;;;;;;2097445;28;46959;-74
2021/06/25 01:36:11;;;;;;;;;;;;;;;;;;2088692;28;45801;-73
2021/06/25 01:37:12;;;;;;;;;;;;;;;;;;2089979;28;46352;-73
2021/06/25 01:38:14;;;;;;;;;;;;;;;;;;2097331;28;45697;-73
2021/06/25 01:39:16;;;;;;;;;;;;;;;;;;2081079;28;45323;-74
2021/06/25 01:40:19;;;;;;;;;;;;;;;;;;2072605;28;45193;-73
2021/06/25 01:41:20;;;;;;;;;;;;;;;;;;2073056;28;46585;-73
2021/06/25 01:42:22;;;;;;;;;;;;;;;;;;2089053;28;45340;-73
2021/06/25 01:43:25;;;;;;;;;;;;;;;;;;2089390;28;45188;-73
2021/06/25 01:44:27;;;;;;;;;;;;;;;;;;2089768;28;46486;-72
2021/06/25 01:45:29;;;;;;;;;;;;;;;;;;2097414;28;46314;-73
2021/06/25 01:46:31;;;;;;;;;;;;;;;;;;2080902;28;46167;-72
2021/06/25 01:47:37;;;;;;;;;;;;;;;;;;2081468;28;43955;-73
2021/06/25 01:48:38;;;;;;;;;;;;;;;;;;2082025;28;45295;-74
2021/06/25 01:49:39;;;;;;;;;;;;;;;;;;2081490;28;45237;-72
2021/06/25 01:50:42;;;;;;;;;;;;;;;;;;2097226;28;45282;-73
2021/06/25 01:51:46;;;;;;;;;;;;;;;;;;2089004;28;45200;-72
2021/06/25 01:52:56;;;;;;;;;;;;;;;;;;2089444;28;44092;-72
2021/06/25 01:53:58;;;;;;;;;;;;;;;;;;2087996;28;45349;-73
2021/06/25 01:55:00;;;;;;;;;;;;;;;;;;2080970;28;46416;-72
2021/06/25 01:56:02;;;;;;;;;;;;;;;;;;2097486;28;43897;-72
2021/06/25 01:57:03;;;;;;;;;;;;;;;;;;2096991;28;46435;-72
2021/06/25 01:58:08;;;;;;;;;;;;;;;;;;2089060;28;44445;-72
2021/06/25 01:59:09;;;;;;;;;;;;;;;;;;2081732;28;45229;-73
2021/06/25 02:00:12;;;;;;;;;;;;;;;;;;2081303;28;45382;-73
2021/06/25 02:01:15;;;;;;;;;;;;;;;;;;2081514;28;45419;-72
2021/06/25 02:02:16;;;;;;;;;;;;;;;;;;2081619;28;45431;-74
2021/06/25 02:03:18;;;;;;;;;;;;;;;;;;2080666;28;46971;-72
2021/06/25 02:04:19;;;;;;;;;;;;;;;;;;2089296;28;45737;-73
2021/06/25 02:05:21;;;;;;;;;;;;;;;;;;2097361;28;46533;-73
2021/06/25 02:06:22;;;;;;;;;;;;;;;;;;2089426;28;45024;-73
2021/06/25 02:07:23;;;;;;;;;;;;;;;;;;2097677;28;46595;-72
2021/06/25 02:08:25;;;;;;;;;;;;;;;;;;2097518;28;44125;-73
2021/06/25 02:09:26;;;;;;;;;;;;;;;;;;2097349;28;45371;-73
2021/06/25 02:10:28;;;;;;;;;;;;;;;;;;2097400;28;43427;-72
2021/06/25 02:11:29;;;;;;;;;;;;;;;;;;2080960;28;45302;-71
2021/06/25 02:12:31;;;;;;;;;;;;;;;;;;2089087;28;42826;-72
2021/06/25 02:13:33;;;;;;;;;;;;;;;;;;2089058;28;44043;-72
2021/06/25 02:14:34;;;;;;;;;;;;;;;;;;2073080;28;46114;-72
2021/06/25 02:15:36;;;;;;;;;;;;;;;;;;2072771;28;45391;-73
2021/06/25 02:16:37;;;;;;;;;;;;;;;;;;2072854;28;45501;-72
2021/06/25 02:17:39;;;;;;;;;;;;;;;;;;2080763;28;44124;-74
2021/06/25 02:18:40;;;;;;;;;;;;;;;;;;2097605;28;45324;-73
2021/06/25 02:19:42;;;;;;;;;;;;;;;;;;2088868;28;45398;-73
2021/06/25 02:20:44;;;;;;;;;;;;;;;;;;2089550;28;45567;-73
2021/06/25 02:21:45;;;;;;;;;;;;;;;;;;2097215;28;47308;-74
2021/06/25 02:22:47;;;;;;;;;;;;;;;;;;2097390;28;45900;-74
2021/06/25 02:23:48;;;;;;;;;;;;;;;;;;2088886;28;44641;-74
2021/06/25 02:24:50;;;;;;;;;;;;;;;;;;2089108;28;48212;-74
2021/06/25 02:25:51;;;;;;;;;;;;;;;;;;2105713;28;46879;-74
2021/06/25 02:26:52;;;;;;;;;;;;;;;;;;2097083;28;45861;-74
2021/06/25 02:27:54;;;;;;;;;;;;;;;;;;2097347;28;44802;-74
2021/06/25 02:28:56;;;;;;;;;;;;;;;;;;2088877;28;44588;-73
2021/06/25 02:29:57;;;;;;;;;;;;;;;;;;2072709;28;46191;-74
2021/06/25 02:30:59;;;;;;;;;;;;;;;;;;2089151;28;46399;-74
2021/06/25 02:32:00;;;;;;;;;;;;;;;;;;2088715;28;44673;-74
2021/06/25 02:33:02;;;;;;;;;;;;;;;;;;2072687;28;46265;-74
2021/06/25 02:34:03;;;;;;;;;;;;;;;;;;2072436;28;44606;-74
2021/06/25 02:35:05;;;;;;;;;;;;;;;;;;2089220;28;46231;-74
2021/06/25 02:36:07;;;;;;;;;;;;;;;;;;2096914;28;46910;-74
2021/06/25 02:37:08;;;;;;;;;;;;;;;;;;2089054;28;46108;-72
2021/06/25 02:38:10;;;;;;;;;;;;;;;;;;2081522;28;44872;-73
2021/06/25 02:39:13;;;;;;;;;;;;;;;;;;2097663;28;44282;-73
2021/06/25 02:40:15;;;;;;;;;;;;;;;;;;2088321;28;44254;-72
2021/06/25 02:41:17;;;;;;;;;;;;;;;;;;2072364;28;47294;-72
2021/06/25 02:42:19;;;;;;;;;;;;;;;;;;2089092;28;46850;-72
2021/06/25 02:43:20;;;;;;;;;;;;;;;;;;2089333;28;44548;-72
2021/06/25 02:44:22;;;;;;;;;;;;;;;;;;2072696;28;47113;-72
2021/06/25 02:45:23;;;;;;;;;;;;;;;;;;2089225;28;46993;-72
2021/06/25 02:46:24;;;;;;;;;;;;;;;;;;2097122;28;43454;-72
2021/06/25 02:47:26;;;;;;;;;;;;;;;;;;2080667;28;46865;-72
2021/06/25 02:48:27;;;;;;;;;;;;;;;;;;2096668;28;45573;-74
2021/06/25 02:49:29;;;;;;;;;;;;;;;;;;2096538;28;44029;-72
2021/06/25 02:50:30;;;;;;;;;;;;;;;;;;2096940;28;46785;-72
2021/06/25 02:51:32;;;;;;;;;;;;;;;;;;2096969;28;46316;-72
2021/06/25 02:52:34;;;;;;;;;;;;;;;;;;2097142;28;45297;-72
2021/06/25 02:53:35;;;;;;;;;;;;;;;;;;2096871;28;45303;-73
2021/06/25 02:54:37;;;;;;;;;;;;;;;;;;2081396;28;44381;-72
2021/06/25 02:55:50;;;;;;;;;;;;;;;;;;2081476;28;45235;-72
2021/06/25 02:56:51;;;;;;;;;;;;;;;;;;2081141;28;44756;-72
2021/06/25 02:57:53;;;;;;;;;;;;;;;;;;2097120;28;45294;-72
2021/06/25 02:58:54;;;;;;;;;;;;;;;;;;2088722;28;44474;-74
2021/06/25 02:59:56;;;;;;;;;;;;;;;;;;2080763;28;46140;-75
2021/06/25 03:00:57;;;;;;;;;;;;;;;;;;2081141;28;45254;-75
2021/06/25 03:01:59;;;;;;;;;;;;;;;;;;2080650;28;46318;-77
2021/06/25 03:03:00;;;;;;;;;;;;;;;;;;2089037;28;44019;-75
2021/06/25 03:04:02;;;;;;;;;;;;;;;;;;2096770;28;45392;-74
2021/06/25 03:05:04;;;;;;;;;;;;;;;;;;2097582;28;44210;-74
2021/06/25 03:06:06;;;;;;;;;;;;;;;;;;2088394;28;43896;-74
2021/06/25 03:07:07;;;;;;;;;;;;;;;;;;2088973;28;48157;-74
2021/06/25 03:08:09;;;;;;;;;;;;;;;;;;2096916;28;45290;-74
2021/06/25 03:09:10;;;;;;;;;;;;;;;;;;2088733;28;46749;-74
2021/06/25 03:10:12;;;;;;;;;;;;;;;;;;2096673;28;45487;-73
2021/06/25 03:11:14;;;;;;;;;;;;;;;;;;2096689;28;46018;-73
2021/06/25 03:12:15;;;;;;;;;;;;;;;;;;2096634;28;45586;-72
2021/06/25 03:13:17;;;;;;;;;;;;;;;;;;2097061;28;45452;-72
2021/06/25 03:14:19;;;;;;;;;;;;;;;;;;2080620;28;45737;-72
2021/06/25 03:15:20;;;;;;;;;;;;;;;;;;2088970;28;45667;-72
2021/06/25 03:16:22;;;;;;;;;;;;;;;;;;2088300;28;44258;-73
2021/06/25 03:17:23;;;;;;;;;;;;;;;;;;2089018;28;45867;-72
2021/06/25 03:18:24;;;;;;;;;;;;;;;;;;2096339;28;45429;-72
2021/06/25 03:19:26;;;;;;;;;;;;;;;;;;2080689;28;44575;-72
2021/06/25 03:20:27;;;;;;;;;;;;;;;;;;2088691;28;46785;-72
2021/06/25 03:21:29;;;;;;;;;;;;;;;;;;2096761;28;46928;-72
2021/06/25 03:22:31;;;;;;;;;;;;;;;;;;2080697;28;46823;-72
2021/06/25 03:23:32;;;;;;;;;;;;;;;;;;2097149;28;44097;-72
2021/06/25 03:24:34;;;;;;;;;;;;;;;;;;2096176;28;45892;-73
2021/06/25 03:25:35;;;;;;;;;;;;;;;;;;2097120;28;43978;-72
2021/06/25 03:26:37;;;;;;;;;;;;;;;;;;2097011;28;46828;-72
2021/06/25 03:27:38;;;;;;;;;;;;;;;;;;2081049;28;44761;-72
2021/06/25 03:28:40;;;;;;;;;;;;;;;;;;2080874;28;44771;-73
2021/06/25 03:29:41;;;;;;;;;;;;;;;;;;2080484;28;46951;-72
2021/06/25 03:30:43;;;;;;;;;;;;;;;;;;2088379;28;44881;-72
2021/06/25 03:31:45;;;;;;;;;;;;;;;;;;2088503;28;46947;-72
2021/06/25 03:32:46;;;;;;;;;;;;;;;;;;2088382;28;46242;-72
2021/06/25 03:33:48;;;;;;;;;;;;;;;;;;2088282;28;46184;-72
2021/06/25 03:34:50;;;;;;;;;;;;;;;;;;2072206;28;46181;-73
2021/06/25 03:35:51;;;;;;;;;;;;;;;;;;2080681;28;44589;-72
2021/06/25 03:36:53;;;;;;;;;;;;;;;;;;2088342;28;44818;-73
2021/06/25 03:37:55;;;;;;;;;;;;;;;;;;2072470;28;45755;-72
2021/06/25 03:38:56;;;;;;;;;;;;;;;;;;2064429;28;46050;-73
2021/06/25 03:39:58;;;;;;;;;;;;;;;;;;2080615;28;46151;-73
2021/06/25 03:40:59;;;;;;;;;;;;;;;;;;2079680;28;44767;-73
2021/06/25 03:42:01;;;;;;;;;;;;;;;;;;2080372;28;44488;-72
2021/06/25 03:43:03;;;;;;;;;;;;;;;;;;2080340;28;45508;-74
2021/06/25 03:44:04;;;;;;;;;;;;;;;;;;2064430;28;46230;-73
2021/06/25 03:45:07;;;;;;;;;;;;;;;;;;2064195;28;47343;-72
2021/06/25 03:46:08;;;;;;;;;;;;;;;;;;2080771;28;47543;-72
2021/06/25 03:47:10;;;;;;;;;;;;;;;;;;2096560;28;45886;-72
2021/06/25 03:48:11;;;;;;;;;;;;;;;;;;2088133;28;47359;-72
2021/06/25 03:49:13;;;;;;;;;;;;;;;;;;2072491;28;44487;-72
2021/06/25 03:50:14;;;;;;;;;;;;;;;;;;2063987;28;46453;-72
2021/06/25 03:51:16;;;;;;;;;;;;;;;;;;2072569;28;44590;-72
2021/06/25 03:52:20;;;;;;;;;;;;;;;;;;2072723;28;47149;-72
2021/06/25 03:53:21;;;;;;;;;;;;;;;;;;2072461;28;45516;-71
2021/06/25 03:54:23;;;;;;;;;;;;;;;;;;2072185;28;45624;-73
2021/06/25 03:55:24;;;;;;;;;;;;;;;;;;2080073;28;44015;-72
2021/06/25 03:56:26;;;;;;;;;;;;;;;;;;2088521;28;47434;-72
2021/06/25 03:57:27;;;;;;;;;;;;;;;;;;2088491;28;44085;-73
2021/06/25 03:58:29;;;;;;;;;;;;;;;;;;2096918;28;46523;-74
2021/06/25 03:59:30;;;;;;;;;;;;;;;;;;2088261;28;45851;-74
2021/06/25 04:00:31;;;;;;;;;;;;;;;;;;2072308;28;46454;-73
2021/06/25 04:01:33;;;;;;;;;;;;;;;;;;2080018;28;46509;-73
2021/06/25 04:02:36;;;;;;;;;;;;;;;;;;2080273;28;44576;-73
2021/06/25 04:03:38;;;;;;;;;;;;;;;;;;2080074;28;46342;-73
2021/06/25 04:04:40;;;;;;;;;;;;;;;;;;2096962;28;45478;-73
2021/06/25 04:05:44;;;;;;;;;;;;;;;;;;2095767;28;45011;-73
2021/06/25 04:06:45;;;;;;;;;;;;;;;;;;2080274;28;46535;-73
2021/06/25 04:07:47;;;;;;;;;;;;;;;;;;2079869;28;46475;-75
2021/06/25 04:08:49;;;;;;;;;;;;;;;;;;2081025;28;45101;-73
2021/06/25 04:09:50;;;;;;;;;;;;;;;;;;2080409;28;43623;-73
2021/06/25 04:10:52;;;;;;;;;;;;;;;;;;2088480;28;46694;-73
2021/06/25 04:11:53;;;;;;;;;;;;;;;;;;2088143;28;46622;-72
2021/06/25 04:12:55;;;;;;;;;;;;;;;;;;2072212;28;44126;-73
2021/06/25 04:13:56;;;;;;;;;;;;;;;;;;2072256;28;45471;-72
2021/06/25 04:14:58;;;;;;;;;;;;;;;;;;2080406;28;45613;-72
2021/06/25 04:16:00;;;;;;;;;;;;;;;;;;2096589;28;46646;-72
2021/06/25 04:17:02;;;;;;;;;;;;;;;;;;2096795;28;43743;-71
2021/06/25 04:18:04;;;;;;;;;;;;;;;;;;2080093;28;45658;-72
2021/06/25 04:19:05;;;;;;;;;;;;;;;;;;2072251;28;46794;-72
2021/06/25 04:20:07;;;;;;;;;;;;;;;;;;2088272;28;45263;-72
2021/06/25 04:21:08;;;;;;;;;;;;;;;;;;2096696;28;45181;-71
2021/06/25 04:22:10;;;;;;;;;;;;;;;;;;2096816;28;46689;-72
2021/06/25 04:23:12;;;;;;;;;;;;;;;;;;2088458;28;46638;-73
2021/06/25 04:24:14;;;;;;;;;;;;;;;;;;2088725;28;44324;-71
2021/06/25 04:25:15;;;;;;;;;;;;;;;;;;2087989;28;45310;-71
2021/06/25 04:26:17;;;;;;;;;;;;;;;;;;2088579;28;42850;-71
2021/06/25 04:27:18;;;;;;;;;;;;;;;;;;2096452;28;46982;-71
2021/06/25 04:28:20;;;;;;;;;;;;;;;;;;2080822;28;45634;-71
2021/06/25 04:29:22;;;;;;;;;;;;;;;;;;2080211;28;46389;-71
2021/06/25 04:30:23;;;;;;;;;;;;;;;;;;2088492;28;44122;-71
2021/06/25 04:31:25;;;;;;;;;;;;;;;;;;2096438;28;42658;-72
2021/06/25 04:32:28;;;;;;;;;;;;;;;;;;2088362;28;46639;-72
2021/06/25 04:33:30;;;;;;;;;;;;;;;;;;2080640;28;47302;-73
2021/06/25 04:34:31;;;;;;;;;;;;;;;;;;2080262;28;47583;-74
2021/06/25 04:35:33;;;;;;;;;;;;;;;;;;2088599;28;42929;-72
2021/06/25 04:36:34;;;;;;;;;;;;;;;;;;2096872;28;43441;-73
2021/06/25 04:37:36;;;;;;;;;;;;;;;;;;2098200;28;47045;-73
2021/06/25 04:38:37;;;;;;;;;;;;;;;;;;2089733;28;46242;-73
2021/06/25 04:39:39;;;;;;;;;;;;;;;;;;2089673;28;47171;-73
2021/06/25 04:40:42;;;;;;;;;;;;;;;;;;2089456;28;46004;-72
2021/06/25 04:41:44;;;;;;;;;;;;;;;;;;2081298;28;45646;-72
2021/06/25 04:42:46;;;;;;;;;;;;;;;;;;2082004;28;47561;-73
2021/06/25 04:43:47;;;;;;;;;;;;;;;;;;2097966;28;46535;-72
2021/06/25 04:44:48;;;;;;;;;;;;;;;;;;2098162;28;45237;-73
2021/06/25 04:45:50;;;;;;;;;;;;;;;;;;2098155;28;45784;-73
2021/06/25 04:46:51;;;;;;;;;;;;;;;;;;2098236;28;46455;-72
2021/06/25 04:47:54;;;;;;;;;;;;;;;;;;2081238;28;44497;-73
2021/06/25 04:48:55;;;;;;;;;;;;;;;;;;2090071;28;47114;-73
2021/06/25 04:49:57;;;;;;;;;;;;;;;;;;2097926;28;47015;-72
2021/06/25 04:50:58;;;;;;;;;;;;;;;;;;2082145;28;45789;-73
2021/06/25 04:51:59;;;;;;;;;;;;;;;;;;2082228;28;43250;-73
2021/06/25 04:53:01;;;;;;;;;;;;;;;;;;2082060;28;46106;-72
2021/06/25 04:54:02;;;;;;;;;;;;;;;;;;2082108;28;46037;-72
2021/06/25 04:55:04;;;;;;;;;;;;;;;;;;2081634;28;45570;-72
2021/06/25 04:56:06;;;;;;;;;;;;;;;;;;2081486;28;46424;-73
2021/06/25 04:57:07;;;;;;;;;;;;;;;;;;2098097;28;45365;-72
2021/06/25 04:58:09;;;;;;;;;;;;;;;;;;2097989;28;43168;-75
2021/06/25 04:59:11;;;;;;;;;;;;;;;;;;2089658;28;45267;-73
2021/06/25 05:00:13;;;;;;;;;;;;;;;;;;2081875;28;46487;-74
2021/06/25 05:01:14;;;;;;;;;;;;;;;;;;2082386;28;42654;-73
2021/06/25 05:02:16;;;;;;;;;;;;;;;;;;2081377;28;44498;-74
2021/06/25 05:03:18;;;;;;;;;;;;;;;;;;2082209;28;42442;-74
2021/06/25 05:04:19;;;;;;;;;;;;;;;;;;2081527;28;42428;-75
2021/06/25 05:05:21;;;;;;;;;;;;;;;;;;2081651;28;45207;-75
2021/06/25 05:06:22;;;;;;;;;;;;;;;;;;2082162;28;45445;-77
2021/06/25 05:07:23;;;;;;;;;;;;;;;;;;2081383;28;43916;-74
2021/06/25 05:08:25;;;;;;;;;;;;;;;;;;2089556;28;44346;-76
2021/06/25 05:09:26;;;;;;;;;;;;;;;;;;2089252;28;44503;-81
2021/06/25 05:10:28;;;;;;;;;;;;;;;;;;2089612;28;45521;-75
2021/06/25 05:11:30;;;;;;;;;;;;;;;;;;2089677;28;45423;-75
2021/06/25 05:12:31;;;;;;;;;;;;;;;;;;2089627;28;45495;-74
2021/06/25 05:13:33;;;;;;;;;;;;;;;;;;2097635;28;46212;-74
2021/06/25 05:14:34;;;;;;;;;;;;;;;;;;2097733;28;46471;-75
2021/06/25 05:15:36;;;;;;;;;;;;;;;;;;2097864;28;43894;-74
2021/06/25 05:16:37;;;;;;;;;;;;;;;;;;2081513;28;46680;-74
2021/06/25 05:17:39;;;;;;;;;;;;;;;;;;2081604;28;46336;-75
2021/06/25 05:18:56;;;;;;;;;;;;;;;;;;2097846;28;44857;-73
2021/06/25 05:20:03;;;;;;;;;;;;;;;;;;2092487;28;44366;-73
2021/06/25 05:21:04;;;;;;;;;;;;;;;;;;2081852;28;45382;-75
2021/06/25 05:22:06;;;;;;;;;;;;;;;;;;2097741;28;44007;-75
2021/06/25 05:23:08;;;;;;;;;;;;;;;;;;2097616;28;45671;-76
2021/06/25 05:24:09;;;;;;;;;;;;;;;;;;2082217;28;44755;-76
2021/06/25 05:25:11;;;;;;;;;;;;;;;;;;2081869;28;45772;-76
2021/06/25 05:26:13;;;;;;;;;;;;;;;;;;2082006;28;45669;-74
2021/06/25 05:27:14;;;;;;;;;;;;;;;;;;2081441;28;45602;-75
2021/06/25 05:28:15;;;;;;;;;;;;;;;;;;2073148;28;46653;-75
2021/06/25 05:29:17;;;;;;;;;;;;;;;;;;2073350;28;44282;-75
2021/06/25 05:30:18;;;;;;;;;;;;;;;;;;2073194;28;46611;-77
2021/06/25 05:31:20;;;;;;;;;;;;;;;;;;2080859;28;46476;-75
2021/06/25 05:32:21;;;;;;;;;;;;;;;;;;2073383;28;44595;-75
2021/06/25 05:33:23;;;;;;;;;;;;;;;;;;2073447;28;46470;-74
2021/06/25 05:34:24;;;;;;;;;;;;;;;;;;2073791;28;45684;-75
2021/06/25 05:35:32;;;;;;;;;;;;;;;;;;2089480;28;45369;-74
2021/06/25 05:36:33;;;;;;;;;;;;;;;;;;2097026;28;45445;-73
2021/06/25 05:37:35;;;;;;;;;;;;;;;;;;2097562;28;43842;-74
2021/06/25 05:38:36;;;;;;;;;;;;;;;;;;2097986;28;45539;-73
2021/06/25 05:39:38;;;;;;;;;;;;;;;;;;2080681;28;47629;-74
2021/06/25 05:40:43;;;;;;;;;;;;;;;;;;2072975;28;43137;-75
2021/06/25 05:41:44;;;;;;;;;;;;;;;;;;2073019;28;45761;-77
2021/06/25 05:42:46;;;;;;;;;;;;;;;;;;2073758;28;46313;-74
2021/06/25 05:43:47;;;;;;;;;;;;;;;;;;2072594;28;47269;-74
2021/06/25 05:44:50;;;;;;;;;;;;;;;;;;2073012;28;47235;-75
2021/06/25 05:45:51;;;;;;;;;;;;;;;;;;2089059;28;47886;-74
2021/06/25 05:46:53;;;;;;;;;;;;;;;;;;2089179;28;45976;-75
2021/06/25 05:47:54;;;;;;;;;;;;;;;;;;2072543;28;45914;-74
2021/06/25 05:48:55;;;;;;;;;;;;;;;;;;2081335;28;47053;-75
2021/06/25 05:49:58;;;;;;;;;;;;;;;;;;2089038;28;46170;-74
2021/06/25 05:50:59;;;;;;;;;;;;;;;;;;2073353;28;45871;-74
2021/06/25 05:52:00;;;;;;;;;;;;;;;;;;2073234;28;45853;-75
2021/06/25 05:53:03;;;;;;;;;;;;;;;;;;2089285;28;44495;-75
2021/06/25 05:54:04;;;;;;;;;;;;;;;;;;2080844;28;44623;-74
2021/06/25 05:55:06;;;;;;;;;;;;;;;;;;2081418;28;45770;-74
2021/06/25 05:56:07;;;;;;;;;;;;;;;;;;2088955;28;44082;-74
2021/06/25 05:57:09;;;;;;;;;;;;;;;;;;2073538;28;45904;-74
2021/06/25 05:58:11;;;;;;;;;;;;;;;;;;2073294;28;47276;-74
2021/06/25 05:59:12;;;;;;;;;;;;;;;;;;2073101;28;44547;-73
2021/06/25 06:00:15;;;;;;;;;;;;;;;;;;2081111;28;47197;-74
2021/06/25 06:01:17;;;;;;;;;;;;;;;;;;2095866;28;46066;-74
2021/06/25 06:02:18;;;;;;;;;;;;;;;;;;2081343;28;45631;-73
2021/06/25 06:03:19;;;;;;;;;;;;;;;;;;2097731;28;46518;-74
2021/06/25 06:04:21;;;;;;;;;;;;;;;;;;2097240;28;46541;-74
2021/06/25 06:05:22;;;;;;;;;;;;;;;;;;2081023;28;45355;-74
2021/06/25 06:06:23;;;;;;;;;;;;;;;;;;2089429;28;45392;-75
2021/06/25 06:07:25;;;;;;;;;;;;;;;;;;2089216;28;45335;-74
2021/06/25 06:08:26;;;;;;;;;;;;;;;;;;2080621;28;45350;-75
2021/06/25 06:09:28;;;;;;;;;;;;;;;;;;2097410;28;45798;-74
2021/06/25 06:10:29;;;;;;;;;;;;;;;;;;2089079;28;46478;-75
2021/06/25 06:11:31;;;;;;;;;;;;;;;;;;2089413;28;46395;-77
2021/06/25 06:12:33;;;;;;;;;;;;;;;;;;2097764;28;44958;-74
2021/06/25 06:13:35;;;;;;;;;;;;;;;;;;2080873;28;45767;-74
2021/06/25 06:14:36;;;;;;;;;;;;;;;;;;2073139;28;44464;-74
2021/06/25 06:15:38;;;;;;;;;;;;;;;;;;2072828;28;43925;-76
2021/06/25 06:16:39;;;;;;;;;;;;;;;;;;2080882;28;46603;-74
2021/06/25 06:17:43;;;;;;;;;;;;;;;;;;2097546;28;43207;-74
2021/06/25 06:18:47;;;;;;;;;;;;;;;;;;2096662;28;45344;-74
2021/06/25 06:19:56;;;;;;;;;;;;;;;;;;2081470;28;46234;-76
2021/06/25 06:20:57;;;;;;;;;;;;;;;;;;2080612;28;45239;-74
2021/06/25 06:31:22;;;;;;;;;;;;;;;;;;2081558;28;45484;-74
2021/06/25 06:32:28;;;;;;;;;;;;;;;;;;2097161;28;44491;-73
2021/06/25 06:33:36;;;;;;;;;;;;;;;;;;2096310;28;45825;-74
2021/06/25 06:34:38;;;;;;;;;;;;;;;;;;2097523;28;45499;-73
2021/06/25 06:35:40;;;;;;;;;;;;;;;;;;2096911;28;45356;-75
2021/06/25 06:36:45;;;;;;;;;;;;;;;;;;2081676;28;46558;-73
2021/06/25 06:37:52;;;;;;;;;;;;;;;;;;2097460;28;45214;-73
2021/06/25 06:38:54;;;;;;;;;;;;;;;;;;2088121;28;46944;-74
2021/06/25 06:39:55;;;;;;;;;;;;;;;;;;2072711;28;45770;-73
2021/06/25 06:40:57;;;;;;;;;;;;;;;;;;2080379;28;46394;-74
2021/06/25 06:41:59;;;;;;;;;;;;;;;;;;2097253;28;44102;-74
2021/06/25 06:43:01;;;;;;;;;;;;;;;;;;2097249;28;46432;-74
2021/06/25 06:44:03;;;;;;;;;;;;;;;;;;2088935;28;44109;-74
2021/06/25 06:45:06;;;;;;;;;;;;;;;;;;2080775;28;45418;-74
2021/06/25 06:46:09;;;;;;;;;;;;;;;;;;2088687;28;45462;-74
2021/06/25 06:47:11;;;;;;;;;;;;;;;;;;2097066;28;46374;-75
2021/06/25 06:48:12;;;;;;;;;;;;;;;;;;2081156;28;45880;-72
2021/06/25 06:49:13;;;;;;;;;;;;;;;;;;2097314;28;43262;-73
2021/06/25 06:50:15;;;;;;;;;;;;;;;;;;2096919;28;44006;-74
2021/06/25 06:51:17;;;;;;;;;;;;;;;;;;2081365;28;47395;-72
2021/06/25 06:52:18;;;;;;;;;;;;;;;;;;2080664;28;44709;-72
2021/06/25 06:53:20;;;;;;;;;;;;;;;;;;2080408;28;47464;-72
2021/06/25 06:54:21;;;;;;;;;;;;;;;;;;2097303;28;47088;-72
2021/06/25 06:55:23;;;;;;;;;;;;;;;;;;2097092;28;44760;-73
2021/06/25 06:56:25;;;;;;;;;;;;;;;;;;2081431;28;44271;-71
2021/06/25 06:57:26;;;;;;;;;;;;;;;;;;2081327;28;44794;-73
2021/06/25 06:58:28;;;;;;;;;;;;;;;;;;2080719;28;46208;-72
2021/06/25 06:59:29;;;;;;;;;;;;;;;;;;2071575;28;45671;-72
2021/06/25 07:00:31;;;;;;;;;;;;;;;;;;2080205;28;45793;-72
2021/06/25 07:01:41;;;;;;;;;;;;;;;;;;2081377;28;44875;-72
2021/06/25 07:02:59;;;;;;;;;;;;;;;;;;2081094;28;42638;-72
2021/06/25 07:04:02;;;;;;;;;;;;;;;;;;2080624;28;46935;-72
2021/06/25 07:05:04;;;;;;;;;;;;;;;;;;2088973;28;46171;-70
2021/06/25 07:06:05;;;;;;;;;;;;;;;;;;2096753;28;47231;-72
2021/06/25 07:07:07;;;;;;;;;;;;;;;;;;2081129;28;46787;-72
2021/06/25 07:08:08;;;;;;;;;;;;;;;;;;2081246;28;44022;-71
2021/06/25 07:09:10;;;;;;;;;;;;;;;;;;2096992;28;45687;-71
2021/06/25 07:10:11;;;;;;;;;;;;;;;;;;2097098;28;47625;-71
2021/06/25 07:11:13;;;;;;;;;;;;;;;;;;2096904;28;44425;-71
2021/06/25 07:12:14;;;;;;;;;;;;;;;;;;2088607;28;46510;-71